Time;durP1;ratioP1;P1;durP2;ratioP2;P2;SDS_P1;SDS_P2;PMS_P1;PMS_P2;Temp;Humidity;BMP_temperature;BMP_pressure;BME280_temperature;BME280_humidity;BME280_pressure;Samples;Min_cycle;Max_cycle;Signal;HPM_P1;HPM_P2
2022/01/08 00:00:33;;;;;;;14.10;8.20;;;1.80;99.90;;;;;;5062801;28;20297;-47
2022/01/08 00:02:59;;;;;;;14.43;8.63;;;1.80;99.90;;;;;;5061885;28;20175;-46
2022/01/08 00:05:25;;;;;;;12.27;7.65;;;1.80;99.90;;;;;;5051776;28;20234;-47
2022/01/08 00:07:50;;;;;;;12.18;7.85;;;1.90;99.90;;;;;;5050555;28;20029;-46
2022/01/08 00:10:16;;;;;;;12.05;7.85;;;1.90;99.90;;;;;;5050150;28;20025;-47
2022/01/08 00:12:42;;;;;;;13.63;8.27;;;1.90;99.90;;;;;;5051438;28;20036;-47
2022/01/08 00:15:08;;;;;;;15.25;9.18;;;1.90;99.90;;;;;;5051110;28;20029;-49
2022/01/08 00:17:35;;;;;;;15.30;9.43;;;1.90;99.90;;;;;;5050977;28;20028;-49
2022/01/08 00:20:00;;;;;;;16.90;10.68;;;1.90;99.90;;;;;;5051367;28;20386;-48
2022/01/08 00:22:26;;;;;;;17.88;10.15;;;1.80;99.90;;;;;;5060256;28;20156;-47
2022/01/08 00:24:54;;;;;;;19.13;10.57;;;1.80;99.90;;;;;;5060696;28;20274;-46
2022/01/08 00:27:22;;;;;;;22.50;11.85;;;1.80;99.90;;;;;;5070000;28;20028;-47
2022/01/08 00:29:48;;;;;;;19.65;11.60;;;1.80;99.90;;;;;;5089550;28;20501;-46
2022/01/08 00:32:14;;;;;;;22.08;12.10;;;1.70;99.90;;;;;;5081504;28;20032;-47
2022/01/08 00:34:43;;;;;;;22.63;11.93;;;1.80;99.90;;;;;;5084119;28;20428;-46
2022/01/08 00:37:10;;;;;;;22.92;12.50;;;1.80;99.90;;;;;;5090874;28;20020;-47
2022/01/08 00:39:36;;;;;;;24.15;12.73;;;1.80;99.90;;;;;;5090861;28;20043;-47
2022/01/08 00:42:02;;;;;;;24.25;13.38;;;1.80;99.90;;;;;;5090937;28;20556;-48
2022/01/08 00:44:28;;;;;;;25.00;12.80;;;1.80;99.90;;;;;;5090987;28;20028;-47
2022/01/08 00:46:54;;;;;;;25.48;14.38;;;1.80;99.90;;;;;;5091266;28;20032;-47
2022/01/08 00:49:19;;;;;;;26.55;13.38;;;1.80;99.90;;;;;;5090245;28;20040;-47
2022/01/08 00:51:45;;;;;;;22.60;12.90;;;1.80;99.90;;;;;;5090770;28;20033;-47
2022/01/08 00:54:10;;;;;;;22.15;11.93;;;1.80;99.90;;;;;;5090951;28;20028;-47
2022/01/08 00:56:36;;;;;;;22.40;12.52;;;1.80;99.90;;;;;;5084350;28;20028;-46
2022/01/08 00:59:03;;;;;;;23.65;11.93;;;1.80;99.90;;;;;;5079344;28;20387;-49
2022/01/08 01:01:29;;;;;;;23.50;13.38;;;1.80;99.90;;;;;;5090767;28;20020;-48
2022/01/08 01:03:54;;;;;;;20.48;11.95;;;1.80;99.90;;;;;;5091071;28;20055;-48
2022/01/08 01:06:20;;;;;;;22.90;12.80;;;1.80;99.90;;;;;;5091035;28;20505;-50
2022/01/08 01:08:45;;;;;;;22.13;11.38;;;1.90;99.90;;;;;;5090155;28;20117;-47
2022/01/08 01:11:11;;;;;;;18.67;10.68;;;1.90;99.90;;;;;;5090877;28;20035;-46
2022/01/08 01:13:36;;;;;;;20.50;11.23;;;1.90;99.90;;;;;;5089059;28;20024;-47
2022/01/08 01:16:02;;;;;;;18.40;10.43;;;1.90;99.90;;;;;;5090806;28;20032;-47
2022/01/08 01:18:28;;;;;;;20.75;10.15;;;1.90;99.90;;;;;;5088700;28;20381;-50
2022/01/08 01:20:53;;;;;;;15.73;9.93;;;2.00;99.90;;;;;;5090581;28;20385;-50
2022/01/08 01:23:26;;;;;;;17.38;8.85;;;2.00;99.90;;;;;;5090495;28;20448;-46
2022/01/08 01:25:57;;;;;;;13.25;8.23;;;2.00;99.90;;;;;;5090341;28;20034;-46
2022/01/08 01:28:37;;;;;;;;;;;1.90;99.90;;;;;;5078064;28;20480;-46
2022/01/08 01:47:04;;;;;;;15.05;8.55;;;2.20;99.90;;;;;;5089400;28;20051;-48
2022/01/08 01:49:32;;;;;;;15.55;9.43;;;2.20;99.90;;;;;;5089201;28;20296;-46
2022/01/08 01:51:59;;;;;;;16.20;9.63;;;2.20;99.90;;;;;;5081999;28;20020;-46
2022/01/08 01:54:27;;;;;;;15.30;9.18;;;2.20;99.90;;;;;;5081890;28;20084;-46
2022/01/08 01:56:53;;;;;;;16.88;9.23;;;2.20;99.90;;;;;;5089674;28;20032;-46
2022/01/08 01:59:19;;;;;;;15.68;9.77;;;2.20;99.90;;;;;;5088395;28;20051;-46
2022/01/08 02:01:45;;;;;;;14.63;9.27;;;2.20;99.90;;;;;;5087452;28;20016;-46
2022/01/08 02:04:11;;;;;;;15.00;9.85;;;2.20;99.90;;;;;;5087850;28;20256;-46
2022/01/08 02:06:36;;;;;;;17.05;10.15;;;2.20;99.90;;;;;;5088475;28;20393;-46
2022/01/08 02:09:02;;;;;;;16.38;9.85;;;2.20;99.90;;;;;;5088850;28;20111;-46
2022/01/08 02:11:28;;;;;;;16.17;9.73;;;2.10;99.90;;;;;;5089329;28;20089;-46
2022/01/08 02:14:05;;;;;;;15.43;9.05;;;2.10;99.90;;;;;;5089022;28;20028;-47
2022/01/08 02:16:31;;;;;;;21.10;11.88;;;2.10;99.90;;;;;;5089513;28;20058;-46
2022/01/08 02:18:57;;;;;;;19.38;10.30;;;2.10;99.90;;;;;;5088903;28;20048;-46
2022/01/08 02:21:22;;;;;;;20.00;11.00;;;2.10;99.90;;;;;;5082861;28;20044;-46
2022/01/08 02:23:49;;;;;;;19.35;10.50;;;2.10;99.90;;;;;;5080668;28;20062;-46
2022/01/08 02:26:14;;;;;;;19.27;11.75;;;2.00;99.90;;;;;;5089183;28;20047;-47
2022/01/08 02:28:41;;;;;;;21.70;10.48;;;2.00;99.90;;;;;;5088417;28;20040;-46
2022/01/08 02:31:07;;;;;;;20.98;11.10;;;2.00;99.90;;;;;;5081919;28;20107;-47
2022/01/08 02:33:33;;;;;;;23.30;13.18;;;2.00;99.90;;;;;;5082639;28;20085;-49
2022/01/08 02:36:06;;;;;;;18.75;11.20;;;2.10;99.90;;;;;;5087568;28;20474;-48
2022/01/08 02:38:32;;;;;;;18.33;10.70;;;2.10;99.90;;;;;;5087172;28;20028;-48
2022/01/08 02:41:02;;;;;;;20.73;12.18;;;2.00;99.90;;;;;;5088923;28;20539;-46
2022/01/08 02:43:28;;;;;;;24.80;12.35;;;2.00;99.90;;;;;;5088911;28;20462;-46
2022/01/08 02:45:55;;;;;;;21.88;12.38;;;1.90;99.90;;;;;;5088756;28;20351;-47
2022/01/08 02:48:21;;;;;;;24.23;12.95;;;1.90;99.90;;;;;;5088267;28;20082;-46
2022/01/08 02:50:47;;;;;;;24.05;13.05;;;1.90;99.90;;;;;;5089017;28;20056;-47
2022/01/08 02:53:12;;;;;;;22.95;13.27;;;1.90;99.90;;;;;;5088863;28;20424;-46
2022/01/08 02:55:40;;;;;;;23.90;13.65;;;1.80;99.90;;;;;;5087421;28;20078;-45
2022/01/08 02:58:06;;;;;;;23.40;12.98;;;1.90;99.90;;;;;;5088193;28;20083;-46
2022/01/08 03:00:32;;;;;;;33.17;14.20;;;1.80;99.90;;;;;;5084355;28;20477;-46
2022/01/08 03:02:57;;;;;;;23.02;13.43;;;1.80;99.90;;;;;;5080486;28;20473;-47
2022/01/08 03:05:23;;;;;;;24.20;12.25;;;1.80;99.90;;;;;;5087416;28;20439;-47
2022/01/08 03:07:49;;;;;;;21.27;12.52;;;1.80;99.90;;;;;;5088550;28;20031;-47
2022/01/08 03:10:16;;;;;;;25.75;12.90;;;1.80;99.90;;;;;;5087533;28;20024;-47
2022/01/08 03:12:42;;;;;;;26.65;13.48;;;1.70;99.90;;;;;;5088949;28;20039;-46
2022/01/08 03:15:20;;;;;;;24.20;12.27;;;1.70;99.90;;;;;;5092679;28;20035;-47
2022/01/08 03:17:46;;;;;;;24.67;12.82;;;1.70;99.90;;;;;;5092527;28;20077;-46
2022/01/08 03:20:14;;;;;;;24.70;12.35;;;1.70;99.90;;;;;;5092848;28;20028;-46
2022/01/08 03:22:42;;;;;;;23.23;12.90;;;1.70;99.90;;;;;;5092663;28;20016;-47
2022/01/08 03:25:09;;;;;;;25.35;13.65;;;1.70;99.90;;;;;;5092717;28;20020;-47
2022/01/08 03:27:35;;;;;;;28.40;14.07;;;1.60;99.90;;;;;;5092070;28;20024;-46
2022/01/08 03:30:01;;;;;;;21.27;11.90;;;1.60;99.90;;;;;;5087142;28;20020;-46
2022/01/08 03:32:27;;;;;;;24.65;13.43;;;1.60;99.90;;;;;;5082853;28;20027;-46
2022/01/08 03:34:53;;;;;;;23.27;12.77;;;1.60;99.90;;;;;;5092476;28;20028;-48
2022/01/08 03:37:18;;;;;;;25.25;12.98;;;1.60;99.90;;;;;;5091641;28;20481;-47
2022/01/08 03:39:44;;;;;;;26.00;14.02;;;1.60;99.90;;;;;;5092461;28;20067;-47
2022/01/08 03:42:10;;;;;;;25.42;13.10;;;1.60;99.90;;;;;;5090993;28;20103;-47
2022/01/08 03:44:35;;;;;;;30.65;13.50;;;1.60;99.90;;;;;;5092195;28;20029;-47
2022/01/08 03:47:29;;;;;;;20.83;12.18;;;1.70;99.90;;;;;;5091961;28;20520;-46
2022/01/08 03:49:47;;;;;;;20.40;12.55;;;1.70;99.90;;;;;;5092220;28;20032;-46
2022/01/08 03:52:13;;;;;;;30.55;13.95;;;1.70;99.90;;;;;;5092144;28;20544;-47
2022/01/08 03:54:39;;;;;;;21.42;12.88;;;1.80;99.90;;;;;;5091882;28;20127;-47
2022/01/08 03:57:04;;;;;;;20.23;12.27;;;1.80;99.90;;;;;;5092068;28;20034;-47
2022/01/08 03:59:30;;;;;;;26.95;13.30;;;1.90;99.90;;;;;;5091258;28;20382;-47
2022/01/08 04:01:56;;;;;;;23.83;13.82;;;1.90;99.90;;;;;;5079604;28;20052;-47
2022/01/08 04:04:21;;;;;;;24.40;11.90;;;1.90;99.90;;;;;;5091766;28;20103;-47
2022/01/08 04:06:47;;;;;;;26.80;12.48;;;2.00;99.90;;;;;;5091772;28;20107;-47
2022/01/08 04:09:13;;;;;;;24.60;11.48;;;2.00;99.90;;;;;;5091290;28;20039;-47
2022/01/08 04:11:38;;;;;;;24.45;12.90;;;2.00;99.90;;;;;;5091907;28;20050;-48
2022/01/08 04:14:04;;;;;;;26.85;13.15;;;2.10;99.90;;;;;;5091719;28;20486;-47
2022/01/08 04:16:32;;;;;;;27.95;13.32;;;2.10;99.90;;;;;;5091386;28;20054;-47
2022/01/08 04:18:59;;;;;;;25.75;12.57;;;2.10;99.90;;;;;;5091028;28;20027;-47
2022/01/08 04:23:51;;;;;;;57.20;13.75;;;2.20;99.90;;;;;;5091630;28;20020;-47
2022/01/08 04:26:16;;;;;;;22.75;12.40;;;2.20;99.90;;;;;;5090473;28;20024;-46
2022/01/08 04:28:42;;;;;;;21.75;11.10;;;2.20;99.90;;;;;;5089457;28;20035;-46
2022/01/08 04:31:07;;;;;;;20.77;11.98;;;2.20;99.90;;;;;;5084811;28;20421;-48
2022/01/08 04:33:33;;;;;;;26.95;11.80;;;2.30;99.90;;;;;;5084357;28;20073;-46
2022/01/08 04:35:58;;;;;;;18.48;12.05;;;2.30;99.90;;;;;;5091273;28;20153;-46
2022/01/08 04:38:24;;;;;;;19.63;11.82;;;2.30;99.90;;;;;;5090592;28;20028;-46
2022/01/08 04:40:49;;;;;;;21.35;10.93;;;2.40;99.90;;;;;;5091532;28;20428;-48
2022/01/08 04:43:15;;;;;;;19.70;12.15;;;2.30;99.90;;;;;;5091145;28;20423;-47
2022/01/08 04:45:42;;;;;;;19.67;11.27;;;2.40;99.90;;;;;;5091163;28;20028;-49
2022/01/08 04:48:07;;;;;;;25.58;10.85;;;2.40;99.90;;;;;;5088631;28;20278;-47
2022/01/08 04:50:33;;;;;;;18.88;10.98;;;2.40;99.90;;;;;;5091182;28;20028;-47
2022/01/08 04:52:59;;;;;;;20.42;11.73;;;2.40;99.90;;;;;;5090971;28;20500;-46
2022/01/08 04:55:25;;;;;;;19.25;11.77;;;2.40;99.90;;;;;;5090843;28;20089;-45
2022/01/08 04:57:51;;;;;;;21.42;10.60;;;2.40;99.90;;;;;;5090204;28;20528;-45
2022/01/08 05:00:19;;;;;;;17.50;11.27;;;2.40;99.90;;;;;;5088223;28;20020;-46
2022/01/08 05:02:45;;;;;;;17.35;10.10;;;2.40;99.90;;;;;;5082093;28;20480;-45
2022/01/08 05:05:11;;;;;;;17.48;10.77;;;2.40;99.90;;;;;;5090849;28;20028;-48
2022/01/08 05:07:38;;;;;;;22.30;11.60;;;2.40;99.90;;;;;;5090174;28;20096;-47
2022/01/08 05:10:04;;;;;;;20.65;12.93;;;2.40;99.90;;;;;;5090657;28;20457;-46
2022/01/08 05:12:29;;;;;;;22.25;11.70;;;2.40;99.90;;;;;;5090618;28;20032;-45
2022/01/08 05:14:56;;;;;;;20.70;11.55;;;2.40;99.90;;;;;;5090930;28;20088;-45
2022/01/08 05:17:28;;;;;;;22.10;11.98;;;2.40;99.90;;;;;;5088219;28;20072;-46
2022/01/08 05:19:54;;;;;;;25.13;13.02;;;2.40;99.90;;;;;;5090536;28;20031;-46
2022/01/08 05:22:28;;;;;;;17.15;10.43;;;2.40;99.90;;;;;;5090384;28;20020;-46
2022/01/08 05:24:55;;;;;;;20.83;11.90;;;2.40;99.90;;;;;;5089267;28;20044;-46
2022/01/08 05:27:21;;;;;;;17.00;11.20;;;2.40;99.90;;;;;;5088353;28;20020;-45
2022/01/08 05:29:50;;;;;;;18.88;12.48;;;2.40;99.90;;;;;;5087947;28;20430;-47
2022/01/08 05:32:17;;;;;;;21.55;12.52;;;2.50;99.90;;;;;;5079574;28;20028;-45
2022/01/08 05:34:44;;;;;;;21.23;12.27;;;2.50;99.90;;;;;;5088806;28;20028;-46
2022/01/08 05:37:10;;;;;;;20.95;12.63;;;2.40;99.90;;;;;;5090085;28;20107;-45
2022/01/08 05:39:35;;;;;;;19.55;11.90;;;2.40;99.90;;;;;;5090003;28;20469;-46
2022/01/08 05:42:01;;;;;;;23.65;13.70;;;2.50;99.90;;;;;;5090251;28;20028;-46
2022/01/08 05:44:26;;;;;;;20.65;11.30;;;2.50;99.90;;;;;;5090005;28;20498;-44
2022/01/08 05:46:52;;;;;;;23.67;13.27;;;2.50;99.90;;;;;;5089729;28;20474;-43
2022/01/08 05:49:17;;;;;;;23.83;13.02;;;2.40;99.90;;;;;;5089336;28;20050;-46
2022/01/08 05:51:43;;;;;;;23.88;13.90;;;2.40;99.90;;;;;;5089849;28;20046;-47
2022/01/08 05:54:09;;;;;;;25.92;13.35;;;2.40;99.90;;;;;;5089765;28;20038;-43
2022/01/08 05:56:35;;;;;;;27.85;15.55;;;2.40;99.90;;;;;;5089694;28;20028;-42
2022/01/08 05:59:00;;;;;;;21.27;12.75;;;2.40;99.90;;;;;;5088841;28;20073;-43
2022/01/08 06:01:26;;;;;;;26.25;14.73;;;2.40;99.90;;;;;;5083520;28;20522;-46
2022/01/08 06:03:52;;;;;;;27.35;15.23;;;2.40;99.90;;;;;;5085518;28;20486;-43
2022/01/08 06:06:17;;;;;;;26.83;15.82;;;2.40;99.90;;;;;;5089670;28;20394;-43
2022/01/08 06:08:43;;;;;;;29.05;16.48;;;2.40;99.90;;;;;;5089302;28;20028;-44
2022/01/08 06:11:08;;;;;;;31.98;16.88;;;2.40;99.90;;;;;;5089723;28;20024;-43
2022/01/08 06:13:34;;;;;;;33.70;18.58;;;2.40;99.90;;;;;;5089341;28;20024;-43
2022/01/08 06:15:59;;;;;;;29.00;15.80;;;2.40;99.90;;;;;;5089102;28;20031;-46
2022/01/08 06:18:25;;;;;;;36.28;17.60;;;2.40;99.90;;;;;;5088936;28;20397;-43
2022/01/08 06:20:50;;;;;;;29.95;16.13;;;2.30;99.90;;;;;;5089364;28;20128;-43
2022/01/08 06:23:16;;;;;;;29.27;16.02;;;2.30;99.90;;;;;;5089116;28;20032;-45
2022/01/08 06:25:43;;;;;;;28.75;16.55;;;2.40;99.90;;;;;;5089670;28;20038;-46
2022/01/08 06:28:10;;;;;;;28.48;16.92;;;2.30;99.90;;;;;;5088338;28;20103;-47
2022/01/08 06:30:35;;;;;;;31.70;16.60;;;2.30;99.90;;;;;;5086545;28;20077;-45
2022/01/08 06:33:01;;;;;;;33.35;16.85;;;2.30;99.90;;;;;;5071426;28;20465;-46
2022/01/08 06:35:27;;;;;;;33.55;17.23;;;2.40;99.90;;;;;;5068696;28;20037;-44
2022/01/08 06:37:52;;;;;;;28.08;16.02;;;2.30;99.90;;;;;;5068223;28;20432;-45
2022/01/08 06:40:18;;;;;;;32.03;17.80;;;2.30;99.90;;;;;;5068601;28;20035;-44
2022/01/08 06:42:43;;;;;;;33.15;17.55;;;2.40;99.90;;;;;;5061482;28;20021;-45
2022/01/08 06:45:09;;;;;;;30.65;17.52;;;2.40;99.90;;;;;;5066639;28;20024;-44
2022/01/08 06:47:35;;;;;;;35.03;17.90;;;2.40;99.90;;;;;;5057242;28;20025;-47
2022/01/08 06:50:00;;;;;;;31.95;17.55;;;2.30;99.90;;;;;;5050485;28;20033;-44
2022/01/08 06:52:26;;;;;;;37.53;18.38;;;2.40;99.90;;;;;;5048572;28;20029;-44
2022/01/08 06:54:51;;;;;;;35.45;17.17;;;2.30;99.90;;;;;;5047223;28;20295;-44
2022/01/08 06:57:17;;;;;;;32.00;17.60;;;2.30;99.90;;;;;;5048229;28;20021;-46
2022/01/08 06:59:42;;;;;;;34.03;17.83;;;2.30;99.90;;;;;;5048463;28;20048;-44
2022/01/08 07:02:08;;;;;;;36.83;19.30;;;2.30;99.90;;;;;;5077930;28;20044;-43
2022/01/08 07:04:33;;;;;;;32.53;16.67;;;2.40;99.90;;;;;;5088765;28;20016;-45
2022/01/08 07:06:59;;;;;;;33.00;18.63;;;2.40;99.90;;;;;;5088782;28;20263;-46
2022/01/08 07:09:25;;;;;;;33.95;17.85;;;2.40;99.90;;;;;;5067413;28;20565;-43
2022/01/08 07:11:51;;;;;;;35.50;18.90;;;2.30;99.90;;;;;;5048258;28;20152;-43
2022/01/08 07:14:16;;;;;;;35.55;18.45;;;2.40;99.90;;;;;;5056544;28;20104;-43
2022/01/08 07:16:42;;;;;;;35.10;18.30;;;2.40;99.90;;;;;;5061210;28;20040;-43
2022/01/08 07:19:07;;;;;;;31.58;17.70;;;2.30;99.90;;;;;;5067811;28;20083;-45
2022/01/08 07:21:33;;;;;;;32.03;18.23;;;2.40;99.90;;;;;;5062340;28;20036;-44
2022/01/08 07:23:58;;;;;;;31.73;17.20;;;2.40;99.90;;;;;;5059442;28;20029;-44
2022/01/08 07:26:24;;;;;;;33.05;16.13;;;2.40;99.90;;;;;;5053447;28;20282;-43
2022/01/08 07:28:49;;;;;;;29.92;14.55;;;2.40;99.90;;;;;;5054922;28;20136;-43
2022/01/08 07:31:15;;;;;;;28.10;14.73;;;2.40;99.90;;;;;;5058496;28;20490;-44
2022/01/08 07:33:40;;;;;;;25.00;13.90;;;2.40;99.90;;;;;;5057075;28;20108;-44
2022/01/08 07:36:06;;;;;;;27.83;14.35;;;2.40;99.90;;;;;;5060346;28;20029;-44
2022/01/08 07:38:31;;;;;;;34.42;16.00;;;2.50;99.90;;;;;;5057949;28;20028;-43
2022/01/08 07:40:57;;;;;;;31.83;15.60;;;2.40;99.90;;;;;;5053081;28;20025;-45
2022/01/08 07:43:23;;;;;;;26.35;14.50;;;2.50;99.90;;;;;;5047800;28;20044;-45
2022/01/08 07:45:49;;;;;;;36.15;17.88;;;2.40;99.90;;;;;;5047686;28;20108;-44
2022/01/08 07:48:14;;;;;;;27.77;15.95;;;2.40;99.90;;;;;;5047208;28;20172;-45
2022/01/08 07:50:40;;;;;;;27.30;15.95;;;2.40;99.90;;;;;;5047807;28;20021;-44
2022/01/08 07:53:06;;;;;;;32.92;16.33;;;2.50;99.90;;;;;;5047748;28;20029;-45
2022/01/08 07:55:31;;;;;;;40.88;16.13;;;2.40;99.90;;;;;;5047664;28;20029;-44
2022/01/08 07:57:56;;;;;;;28.40;16.00;;;2.40;99.90;;;;;;5047343;28;20585;-46
2022/01/08 08:00:22;;;;;;;33.75;17.38;;;2.50;99.90;;;;;;5073178;28;20060;-44
2022/01/08 08:02:47;;;;;;;31.33;17.38;;;2.50;99.90;;;;;;5087074;28;20024;-44
2022/01/08 08:05:13;;;;;;;37.35;18.55;;;2.50;99.90;;;;;;5073380;28;20025;-43
2022/01/08 08:07:40;;;;;;;32.20;18.23;;;2.50;99.90;;;;;;5059333;28;20024;-45
2022/01/08 08:10:10;;;;;;;32.25;17.98;;;2.40;99.90;;;;;;5067702;28;20039;-43
2022/01/08 08:12:35;;;;;;;37.40;18.27;;;2.50;99.90;;;;;;5050408;28;20032;-44
2022/01/08 08:15:01;;;;;;;35.15;18.90;;;2.40;99.90;;;;;;5049972;28;20025;-44
2022/01/08 08:17:26;;;;;;;40.20;19.83;;;2.50;99.90;;;;;;5047394;28;20060;-44
2022/01/08 08:19:52;;;;;;;39.90;21.30;;;2.60;99.90;;;;;;5049758;28;20197;-44
2022/01/08 08:22:17;;;;;;;48.00;23.30;;;2.60;99.90;;;;;;5049635;28;20278;-45
2022/01/08 08:24:43;;;;;;;37.45;20.52;;;2.60;99.90;;;;;;5050852;28;20040;-44
2022/01/08 08:27:08;;;;;;;44.40;23.13;;;2.60;99.90;;;;;;5050782;28;20036;-44
2022/01/08 08:29:34;;;;;;;36.78;20.83;;;2.60;99.90;;;;;;5066323;28;20469;-43
2022/01/08 08:31:59;;;;;;;42.10;20.58;;;2.50;99.90;;;;;;5081139;28;20024;-45
2022/01/08 08:34:25;;;;;;;38.95;20.55;;;2.60;99.90;;;;;;5083479;28;20374;-44
2022/01/08 08:36:50;;;;;;;33.78;19.30;;;2.60;99.90;;;;;;5089683;28;20107;-44
2022/01/08 08:39:16;;;;;;;39.75;19.75;;;2.70;99.90;;;;;;5090418;28;20504;-44
2022/01/08 08:41:41;;;;;;;37.85;20.30;;;2.70;99.90;;;;;;5091261;28;20108;-44
2022/01/08 08:44:07;;;;;;;37.75;19.38;;;2.80;99.90;;;;;;5089743;28;20429;-43
2022/01/08 08:46:32;;;;;;;34.60;19.80;;;2.80;99.90;;;;;;5090798;28;20066;-44
2022/01/08 08:48:58;;;;;;;38.35;19.83;;;2.70;99.90;;;;;;5090329;28;20051;-43
2022/01/08 08:51:23;;;;;;;33.40;18.50;;;2.70;99.90;;;;;;5090898;28;20070;-46
2022/01/08 08:53:49;;;;;;;33.75;17.90;;;2.80;99.90;;;;;;5090933;28;20129;-44
2022/01/08 08:56:14;;;;;;;35.10;18.55;;;2.80;99.90;;;;;;5090884;28;20509;-44
2022/01/08 08:58:40;;;;;;;37.47;18.67;;;2.90;99.90;;;;;;5090254;28;20020;-44
2022/01/08 09:01:06;;;;;;;35.03;19.38;;;2.90;99.90;;;;;;5081229;28;20052;-42
2022/01/08 09:03:31;;;;;;;49.63;17.92;;;3.00;99.90;;;;;;5082314;28;20024;-44
2022/01/08 09:05:57;;;;;;;35.97;17.38;;;3.00;99.90;;;;;;5090576;28;20055;-44
2022/01/08 09:08:22;;;;;;;36.63;18.42;;;3.00;99.90;;;;;;5089979;28;20028;-45
2022/01/08 09:10:48;;;;;;;30.13;16.85;;;3.10;99.90;;;;;;5090177;28;20028;-44
2022/01/08 09:13:13;;;;;;;34.83;17.92;;;3.00;99.90;;;;;;5090508;28;20028;-43
2022/01/08 09:15:41;;;;;;;35.60;17.52;;;2.90;99.90;;;;;;5090132;28;20458;-43
2022/01/08 09:18:08;;;;;;;33.58;16.27;;;2.90;99.90;;;;;;5078223;28;20103;-44
2022/01/08 09:20:34;;;;;;;33.60;17.27;;;2.90;99.90;;;;;;5083633;28;20413;-45
2022/01/08 09:23:00;;;;;;;38.97;17.02;;;2.90;99.90;;;;;;5090070;28;20028;-43
2022/01/08 09:25:26;;;;;;;38.55;16.83;;;3.00;99.90;;;;;;5090366;28;20043;-43
2022/01/08 09:27:51;;;;;;;33.00;17.85;;;3.00;99.90;;;;;;5089579;28;20028;-44
2022/01/08 09:30:17;;;;;;;37.05;18.00;;;3.10;99.90;;;;;;5087201;28;20037;-43
2022/01/08 09:32:46;;;;;;;37.92;16.73;;;3.20;99.90;;;;;;5077885;28;20024;-46
2022/01/08 09:35:13;;;;;;;32.78;16.35;;;3.20;99.90;;;;;;5089185;28;20032;-46
2022/01/08 09:37:39;;;;;;;33.28;17.55;;;3.20;99.90;;;;;;5088056;28;20020;-43
2022/01/08 09:40:15;;;;;;;34.60;16.92;;;3.30;99.90;;;;;;5090131;28;20043;-46
2022/01/08 09:42:44;;;;;;;42.17;18.08;;;3.30;99.90;;;;;;5090134;28;20424;-44
2022/01/08 09:45:11;;;;;;;27.95;14.60;;;3.30;99.90;;;;;;5088585;28;20020;-43
2022/01/08 09:47:37;;;;;;;29.17;15.90;;;3.40;99.90;;;;;;5089029;28;20028;-43
2022/01/08 09:50:04;;;;;;;36.67;18.38;;;3.40;99.90;;;;;;5089597;28;20532;-43
2022/01/08 09:52:31;;;;;;;36.38;17.48;;;3.30;99.90;;;;;;5081899;28;20039;-43
2022/01/08 09:54:57;;;;;;;33.92;16.77;;;3.30;99.90;;;;;;5079949;28;20493;-45
2022/01/08 09:57:22;;;;;;;32.60;17.60;;;3.30;99.90;;;;;;5089085;28;20028;-43
2022/01/08 09:59:48;;;;;;;40.83;18.63;;;3.40;99.90;;;;;;5084465;28;20020;-44
2022/01/08 10:02:13;;;;;;;31.42;16.40;;;3.50;99.90;;;;;;5081174;28;20560;-45
2022/01/08 10:04:41;;;;;;;28.45;16.08;;;3.50;99.90;;;;;;5089432;28;20024;-43
2022/01/08 10:07:32;;;;;;;29.83;15.43;;;3.60;99.90;;;;;;5089629;28;20020;-43
2022/01/08 10:09:59;;;;;;;30.73;15.40;;;3.50;99.90;;;;;;5087300;28;20037;-44
2022/01/08 10:12:39;;;;;;;28.08;14.77;;;3.70;99.90;;;;;;5089461;28;20069;-44
2022/01/08 10:17:49;;;;;;;24.67;13.38;;;4.10;99.90;;;;;;5088742;28;20043;-43
2022/01/08 10:20:33;;;;;;;28.55;14.77;;;4.40;99.90;;;;;;5088031;28;20031;-47
2022/01/08 10:23:08;;;;;;;36.10;15.98;;;4.40;99.90;;;;;;5088836;28;20366;-43
2022/01/08 10:25:33;;;;;;;29.50;14.95;;;4.40;99.90;;;;;;5089133;28;20035;-43
2022/01/08 10:27:59;;;;;;;34.95;15.65;;;4.40;99.90;;;;;;5088561;28;20378;-47
2022/01/08 10:30:26;;;;;;;37.45;15.13;;;4.40;99.90;;;;;;5080077;28;20039;-44
2022/01/08 10:32:56;;;;;;;26.52;14.23;;;4.30;99.90;;;;;;5077216;28;20024;-46
2022/01/08 10:35:45;;;;;;;24.88;15.23;;;4.40;99.90;;;;;;5089009;28;20243;-44
2022/01/08 10:38:10;;;;;;;25.90;14.32;;;4.60;99.90;;;;;;5088883;28;20411;-43
2022/01/08 10:40:36;;;;;;;26.13;15.35;;;4.60;99.90;;;;;;5089212;28;20020;-44
2022/01/08 10:43:01;;;;;;;28.13;14.32;;;4.70;99.90;;;;;;5089191;28;20024;-43
2022/01/08 10:45:33;;;;;;;23.42;13.88;;;4.70;99.90;;;;;;5088893;28;20413;-44
2022/01/08 10:48:03;;;;;;;27.92;14.40;;;4.70;99.90;;;;;;5088126;28;20485;-43
2022/01/08 10:50:29;;;;;;;29.35;13.82;;;4.90;99.90;;;;;;5087630;28;20437;-45
2022/01/08 10:52:54;;;;;;;29.17;13.20;;;5.10;99.90;;;;;;5088707;28;20063;-43
2022/01/08 10:55:30;;;;;;;27.83;13.65;;;5.40;99.90;;;;;;5057314;28;20098;-43
2022/01/08 10:57:56;;;;;;;24.65;13.10;;;6.30;99.90;;;;;;5061635;28;20024;-46
2022/01/08 11:00:30;;;;;;;24.15;13.70;;;7.40;99.90;;;;;;5067289;28;20039;-46
2022/01/08 11:02:56;;;;;;;24.35;13.00;;;8.30;99.90;;;;;;5076393;28;20047;-43
2022/01/08 11:05:22;;;;;;;25.35;12.68;;;8.80;99.90;;;;;;5090371;28;20024;-44
2022/01/08 11:07:48;;;;;;;18.50;11.43;;;9.90;99.90;;;;;;5089744;28;20448;-45
2022/01/08 11:10:23;;;;;;;20.45;11.73;;;10.50;99.90;;;;;;5090557;28;20024;-44
2022/01/08 11:12:51;;;;;;;24.13;12.60;;;11.20;98.00;;;;;;5089085;28;20016;-46
2022/01/08 11:17:49;;;;;;;18.45;10.57;;;10.60;97.60;;;;;;5089339;28;20024;-44
2022/01/08 11:20:20;;;;;;;24.00;12.15;;;9.60;98.90;;;;;;5088702;28;20451;-44
2022/01/08 11:22:49;;;;;;;21.35;11.63;;;9.10;99.90;;;;;;5090003;28;20040;-47
2022/01/08 11:25:27;;;;;;;21.77;11.88;;;9.10;99.90;;;;;;5089856;28;20093;-45
2022/01/08 11:27:59;;;;;;;21.52;11.25;;;9.20;99.90;;;;;;5089235;28;20031;-47
2022/01/08 11:30:30;;;;;;;23.63;11.27;;;8.80;99.90;;;;;;5076461;28;20569;-43
2022/01/08 11:33:02;;;;;;;20.33;11.07;;;8.40;99.90;;;;;;5066973;28;20040;-44
2022/01/08 11:35:30;;;;;;;21.75;12.10;;;8.20;99.90;;;;;;5091934;28;20370;-44
2022/01/08 11:37:56;;;;;;;20.75;12.45;;;7.70;99.90;;;;;;5090578;28;20016;-44
2022/01/08 11:40:26;;;;;;;29.02;13.15;;;7.10;99.90;;;;;;5090731;28;20409;-45
2022/01/08 11:42:52;;;;;;;25.20;13.05;;;7.00;99.90;;;;;;5091178;28;20405;-46
2022/01/08 11:45:26;;;;;;;22.75;12.15;;;6.90;99.90;;;;;;5090861;28;20028;-43
2022/01/08 11:47:55;;;;;;;27.23;14.20;;;6.90;99.90;;;;;;5089149;28;20482;-44
2022/01/08 11:50:24;;;;;;;20.58;11.63;;;6.80;99.90;;;;;;5091205;28;20409;-44
2022/01/08 11:53:13;;;;;;;25.08;12.30;;;6.90;99.90;;;;;;5090354;28;20024;-44
2022/01/08 11:55:39;;;;;;;22.88;13.65;;;7.00;99.90;;;;;;5091515;28;20386;-43
2022/01/08 11:58:26;;;;;;;27.30;14.15;;;6.80;99.90;;;;;;5090461;28;20020;-44
2022/01/08 12:01:06;;;;;;;30.63;13.93;;;6.50;99.90;;;;;;5085885;28;20386;-43
2022/01/08 12:03:38;;;;;;;28.63;12.88;;;6.40;99.90;;;;;;5077229;28;20156;-44
2022/01/08 12:06:29;;;;;;;25.83;13.38;;;6.50;99.90;;;;;;5080206;28;20025;-42
2022/01/08 12:09:17;;;;;;;29.52;13.30;;;6.10;99.90;;;;;;5068515;28;20024;-43
2022/01/08 12:11:48;;;;;;;25.92;12.82;;;6.20;99.90;;;;;;5071205;28;20098;-44
2022/01/08 12:14:21;;;;;;;22.45;11.80;;;6.40;99.90;;;;;;5072792;28;20485;-46
2022/01/08 12:16:49;;;;;;;25.27;12.98;;;6.60;99.90;;;;;;5070772;28;20033;-43
2022/01/08 12:19:30;;;;;;;23.10;13.48;;;6.70;99.90;;;;;;5056909;28;20032;-44
2022/01/08 12:21:55;;;;;;;;;;;6.50;99.90;;;;;;5051797;28;20375;-44
2022/01/08 12:24:27;;;;;;;27.10;12.98;;;6.30;99.90;;;;;;5051221;28;19911;-43
2022/01/08 12:26:58;;;;;;;23.00;10.73;;;6.20;99.90;;;;;;5051274;28;20112;-44
2022/01/08 12:29:40;;;;;;;29.23;12.73;;;6.00;99.90;;;;;;5050858;28;20414;-44
2022/01/08 12:32:29;;;;;;;34.47;17.15;;;6.00;99.90;;;;;;5071927;28;20028;-44
2022/01/08 12:35:02;;;;;;;26.17;11.05;;;5.80;99.90;;;;;;5086159;28;20032;-44
2022/01/08 12:37:37;;;;;;;22.98;11.43;;;5.80;99.90;;;;;;5090812;28;21121;-43
2022/01/08 12:40:04;;;;;;;29.70;11.57;;;5.70;99.90;;;;;;5061674;28;20441;-43
2022/01/08 12:42:29;;;;;;;20.20;10.52;;;5.70;99.90;;;;;;5060479;28;20013;-43
2022/01/08 12:45:18;;;;;;;26.48;12.75;;;5.70;99.90;;;;;;5063702;28;20138;-43
2022/01/08 12:48:06;;;;;;;27.52;12.07;;;5.60;99.90;;;;;;5065319;28;20050;-43
2022/01/08 12:50:38;;;;;;;24.70;11.23;;;5.40;99.90;;;;;;5059223;28;20108;-43
2022/01/08 12:53:07;;;;;;;30.33;11.13;;;5.40;99.90;;;;;;5058763;28;20120;-44
2022/01/08 12:55:41;;;;;;;23.65;10.13;;;5.30;99.90;;;;;;5059612;28;20309;-45
2022/01/08 12:58:17;;;;;;;26.92;11.95;;;5.40;99.90;;;;;;5063230;28;20024;-43
2022/01/08 13:00:59;;;;;;;28.65;10.48;;;5.40;99.90;;;;;;5060180;28;20649;-44
2022/01/08 13:03:39;;;;;;;23.75;11.55;;;5.40;99.90;;;;;;5082522;28;20473;-43